.
WxDataArchive / Data Records for 2011-09-05
2011-09-04 September 2011 2011-09-06

Data Records for Monday, 05 September 2011

Time	Temp	Chill	HIndex	Humid	Dewpt	 Wind 	HiWind	WindDir	Rain 	Barom 
-----	----	-----	------	-----	-----	------	------	-------	-----	----- 
00:00	60.5	60.5	60.5	75	52.5	0	1	315	0.00	29.913 
00:05	60.4	60.4	60.4	75	52.4	0	0	---	0.00	29.913 
00:10	60.2	60.2	60.2	76	52.6	0	0	---	0.00	29.913 
00:15	60.1	60.1	60.1	76	52.5	0	0	---	0.00	29.912 
00:20	59.9	59.9	59.9	77	52.7	0	0	---	0.00	29.912 
00:25	59.6	59.6	59.6	77	52.4	0	0	---	0.00	29.912 
00:30	59.5	59.5	59.5	78	52.6	0	0	---	0.00	29.913 
00:35	59.2	59.2	59.2	79	52.7	0	0	---	0.00	29.913 
00:40	59.0	59.0	59.0	79	52.5	0	0	---	0.00	29.913 
00:45	58.7	58.7	58.7	80	52.5	0	0	---	0.00	29.914 
00:50	58.6	58.6	58.6	81	52.8	0	0	---	0.00	29.914 
00:55	58.4	58.4	58.4	81	52.6	0	0	---	0.00	29.914 
01:00	58.4	58.4	58.4	82	52.9	0	0	---	0.00	29.914 
01:05	58.4	58.4	58.4	82	52.9	0	0	---	0.00	29.914 
01:10	58.4	58.4	58.4	83	53.3	0	0	---	0.00	29.914 
01:15	58.4	58.4	58.4	83	53.3	0	0	---	0.00	29.916 
01:20	58.3	58.3	58.3	83	53.2	0	0	---	0.00	29.916 
01:25	58.3	58.3	58.3	83	53.2	0	0	---	0.00	29.916 
01:30	58.3	58.3	58.3	83	53.2	0	0	---	0.00	29.916 
01:35	58.3	58.3	58.3	84	53.5	0	1	315	0.00	29.916 
01:40	58.3	58.3	58.3	84	53.5	0	1	315	0.00	29.916 
01:45	58.3	58.3	58.3	84	53.5	0	0	---	0.00	29.915 
01:50	58.1	58.1	58.1	84	53.3	0	1	315	0.00	29.915 
01:55	58.1	58.1	58.1	84	53.3	0	0	---	0.00	29.915 
02:00	58.1	58.1	58.1	84	53.3	0	0	---	0.00	29.910 
02:05	58.0	58.0	58.0	84	53.2	0	1	315	0.00	29.910 
02:10	58.0	58.0	58.0	85	53.5	0	0	---	0.00	29.910 
02:15	58.0	58.0	58.0	85	53.5	0	2	315	0.00	29.917 
02:20	58.0	58.0	58.0	85	53.5	0	1	315	0.00	29.917 
02:25	58.1	58.1	58.1	85	53.6	0	1	315	0.00	29.917 
02:30	58.1	58.1	58.1	85	53.6	0	1	315	0.00	29.917 
02:35	58.1	58.1	58.1	86	53.9	0	2	315	0.00	29.917 
02:40	58.1	58.1	58.1	86	53.9	0	1	315	0.00	29.917 
02:45	58.1	58.1	58.1	86	53.9	0	2	315	0.00	29.918 
02:50	58.1	58.1	58.1	86	53.9	0	4	315	0.00	29.918 
02:55	58.1	58.1	58.1	86	53.9	1	3	292	0.00	29.918 
03:00	58.0	58.0	58.0	86	53.8	0	5	292	0.00	29.920 
03:05	58.0	58.0	58.0	87	54.1	1	3	270	0.00	29.920 
03:10	58.0	58.0	58.0	87	54.1	0	2	315	0.00	29.920 
03:15	58.0	58.0	58.0	87	54.1	0	2	315	0.00	29.920 
03:20	57.8	57.8	57.8	87	54.0	0	2	315	0.00	29.920 
03:25	57.8	57.8	57.8	87	54.0	1	4	270	0.00	29.920 
03:30	57.6	57.6	57.6	87	53.8	0	2	270	0.00	29.920 
03:35	57.6	57.6	57.6	87	53.8	0	2	315	0.00	29.920 
03:40	57.6	57.6	57.6	88	54.1	0	3	315	0.00	29.920 
03:45	57.5	57.5	57.5	88	54.0	1	3	315	0.00	29.923 
03:50	57.5	57.5	57.5	88	54.0	0	3	315	0.00	29.923 
03:55	57.5	57.5	57.5	88	54.0	1	6	315	0.00	29.923 
04:00	57.3	57.3	57.3	88	53.8	0	4	270	0.00	29.928 
04:05	57.3	57.3	57.3	88	53.8	0	2	270	0.00	29.928 
04:10	57.2	57.2	57.2	88	53.7	0	1	270	0.00	29.928 
04:15	57.2	57.2	57.2	88	53.7	0	3	270	0.00	29.930 
04:20	57.2	57.2	57.2	88	53.7	0	2	270	0.00	29.930 
04:25	57.0	57.0	57.0	88	53.5	0	1	270	0.00	29.930 
04:30	57.0	57.0	57.0	88	53.5	0	3	270	0.00	29.934 
04:35	56.9	56.9	56.9	88	53.4	0	1	270	0.00	29.934 
04:40	56.9	56.9	56.9	88	53.4	0	1	270	0.00	29.934 
04:45	56.9	56.9	56.9	88	53.4	0	2	270	0.00	29.933 
04:50	56.9	56.9	56.9	87	53.1	0	2	270	0.00	29.933 
04:55	56.9	56.9	56.9	86	52.8	0	2	270	0.00	29.933 
05:00	56.9	56.9	56.9	86	52.8	0	2	270	0.00	29.927 
05:05	56.9	56.9	56.9	85	52.4	0	2	270	0.00	29.927 
05:10	56.9	56.9	56.9	85	52.4	0	2	270	0.00	29.927 
05:15	56.9	56.9	56.9	85	52.4	0	0	---	0.00	29.929 
05:20	56.9	56.9	56.9	85	52.4	0	1	270	0.00	29.929 
05:25	56.7	56.7	56.7	85	52.2	0	1	270	0.00	29.929 
05:30	56.7	56.7	56.7	85	52.2	0	1	270	0.00	29.926 
05:35	56.7	56.7	56.7	85	52.2	0	2	270	0.00	29.926 
05:40	56.6	56.6	56.6	85	52.1	0	2	270	0.00	29.926 
05:45	56.6	56.6	56.6	85	52.1	0	1	270	0.00	29.927 
05:50	56.5	56.5	56.5	85	52.0	0	1	270	0.00	29.927 
05:55	56.5	56.5	56.5	85	52.0	0	1	270	0.00	29.927 
06:00	56.5	56.5	56.5	85	52.0	0	1	270	0.00	29.931 
06:05	56.3	56.3	56.3	85	51.8	0	1	270	0.00	29.931 
06:10	56.3	56.3	56.3	85	51.8	0	1	270	0.00	29.931 
06:15	56.2	56.2	56.2	85	51.7	0	0	---	0.00	29.936 
06:20	56.0	56.0	56.0	85	51.6	0	2	270	0.00	29.936 
06:25	56.0	56.0	56.0	84	51.2	0	2	270	0.00	29.936 
06:30	56.0	56.0	56.0	84	51.2	0	2	270	0.00	29.938 
06:35	55.9	55.9	55.9	83	50.8	0	2	270	0.00	29.938 
06:40	55.9	55.9	55.9	83	50.8	0	1	270	0.00	29.938 
06:45	55.9	55.9	55.9	82	50.5	0	0	---	0.00	29.941 
06:50	55.7	55.7	55.7	82	50.3	0	1	270	0.00	29.941 
06:55	55.7	55.7	55.7	82	50.3	0	0	---	0.00	29.941 
07:00	55.6	55.6	55.6	82	50.2	0	1	270	0.00	29.945 
07:05	55.6	55.6	55.6	82	50.2	0	1	270	0.00	29.945 
07:10	55.4	55.4	55.4	83	50.3	0	1	270	0.00	29.945 
07:15	55.3	55.3	55.3	83	50.2	0	1	270	0.00	29.952 
07:20	55.3	55.3	55.3	82	49.9	0	1	270	0.00	29.952 
07:25	55.3	55.3	55.3	82	49.9	0	1	270	0.00	29.952 
07:30	55.3	55.3	55.3	83	50.2	0	1	270	0.00	29.954 
07:35	55.1	55.1	55.1	83	50.0	0	1	270	0.00	29.954 
07:40	55.1	55.1	55.1	83	50.0	0	1	270	0.00	29.954 
07:45	55.1	55.1	55.1	83	50.0	0	3	270	0.00	29.957 
07:50	55.1	55.1	55.1	83	50.0	0	2	270	0.00	29.957 
07:55	55.1	55.1	55.1	83	50.0	0	1	270	0.00	29.957 
08:00	55.1	55.1	55.1	83	50.0	0	3	270	0.00	29.962 
08:05	55.3	55.3	55.3	83	50.2	1	4	270	0.00	29.962 
08:10	55.3	55.3	55.3	83	50.2	0	3	270	0.00	29.962 
08:15	55.3	55.3	55.3	83	50.2	1	4	270	0.00	29.972 
08:20	55.4	55.4	55.4	83	50.3	0	4	270	0.00	29.972 
08:25	55.4	55.4	55.4	82	50.0	1	4	270	0.00	29.972 
08:30	55.6	55.6	55.6	82	50.2	0	3	270	0.00	29.978 
08:35	55.7	55.7	55.7	82	50.3	0	4	270	0.00	29.978 
08:40	55.7	55.7	55.7	81	50.0	0	4	315	0.00	29.978 
08:45	55.9	55.9	55.9	81	50.2	0	3	270	0.00	29.979 
08:50	56.0	56.0	56.0	79	49.6	0	2	292	0.00	29.979 
08:55	56.2	56.2	56.2	78	49.4	1	5	292	0.00	29.979 
09:00	56.3	56.3	56.3	79	49.9	0	4	158	0.00	29.982 
09:05	56.3	56.3	56.3	77	49.2	1	4	292	0.00	29.982 
09:10	56.3	56.3	56.3	77	49.2	0	6	68	0.00	29.982 
09:15	56.5	56.5	56.5	76	49.0	1	7	270	0.00	29.986 
09:20	56.5	56.5	56.5	75	48.7	1	6	292	0.00	29.986 
09:25	56.6	56.6	56.6	75	48.8	0	6	90	0.00	29.986 
09:30	56.7	56.7	56.7	75	48.9	1	4	90	0.00	29.988 
09:35	56.9	56.9	56.9	75	49.1	1	4	180	0.00	29.988 
09:40	57.0	57.0	57.0	75	49.2	0	3	158	0.00	29.988 
09:45	57.2	57.2	57.2	75	49.3	0	2	315	0.00	29.990 
09:50	57.3	57.3	57.3	76	49.8	1	3	292	0.00	29.990 
09:55	57.3	57.3	57.3	74	49.1	0	4	270	0.00	29.990 
10:00	57.5	57.5	57.5	75	49.6	0	2	270	0.00	29.991 
10:05	57.5	57.5	57.5	75	49.6	1	10	112	0.00	29.991 
10:10	57.3	57.3	57.3	73	48.7	1	5	292	0.00	29.991 
10:15	57.2	57.2	57.2	73	48.6	0	4	292	0.00	29.999 
10:20	57.2	57.2	57.2	74	49.0	0	6	315	0.00	29.999 
10:25	57.3	57.3	57.3	74	49.1	0	3	45	0.00	29.999 
10:30	57.3	57.3	57.3	74	49.1	1	4	315	0.00	30.005 
10:35	57.2	57.2	57.2	74	49.0	0	4	270	0.00	30.005 
10:40	57.2	57.2	57.2	74	49.0	1	3	270	0.00	30.005 
10:45	57.0	57.0	57.0	74	48.8	1	3	315	0.00	30.005 
10:50	57.0	57.0	57.0	74	48.8	1	3	315	0.00	30.005 
10:55	56.7	56.7	56.7	74	48.5	1	5	338	0.00	30.005 
11:00	56.7	56.7	56.7	75	48.9	0	2	315	0.00	30.007 
11:05	56.9	56.9	56.9	75	49.1	0	1	315	0.00	30.007 
11:10	57.0	57.0	57.0	75	49.2	0	4	68	0.00	30.007 
11:15	57.3	57.3	57.3	75	49.4	0	4	338	0.00	30.006 
11:20	57.3	57.3	57.3	73	48.7	1	4	315	0.00	30.006 
11:25	57.2	57.2	57.2	74	49.0	1	4	315	0.00	30.006 
11:30	57.2	57.2	57.2	74	49.0	1	3	45	0.00	30.018 
11:35	57.2	57.2	57.2	74	49.0	1	5	315	0.00	30.018 
11:40	57.3	57.3	57.3	75	49.4	0	2	315	0.00	30.018 
11:45	57.3	57.3	57.3	74	49.1	1	4	315	0.00	30.028 
11:50	57.2	57.2	57.2	74	49.0	0	4	270	0.00	30.028 
11:55	57.0	57.0	57.0	74	48.8	1	4	270	0.00	30.028 
12:00	57.0	57.0	57.0	74	48.8	1	4	248	0.00	30.034 
12:05	57.0	57.0	57.0	75	49.2	0	2	292	0.00	30.034 
12:10	57.0	57.0	57.0	74	48.8	2	7	112	0.00	30.034 
12:15	57.0	57.0	57.0	74	48.8	0	3	112	0.00	30.040 
12:20	57.0	57.0	57.0	74	48.8	1	7	315	0.00	30.040 
12:25	57.2	57.2	57.2	75	49.3	1	5	270	0.00	30.040 
12:30	57.2	57.2	57.2	74	49.0	1	5	135	0.00	30.041 
12:35	57.3	57.3	57.3	74	49.1	1	7	292	0.00	30.041 
12:40	57.5	57.5	57.5	74	49.3	1	3	248	0.00	30.041 
12:45	57.6	57.6	57.6	73	49.0	1	5	248	0.00	30.039 
12:50	57.6	57.6	57.6	74	49.4	0	4	270	0.00	30.039 
12:55	57.8	57.8	57.8	74	49.6	1	5	270	0.00	30.039 
13:00	57.8	57.8	57.8	73	49.2	1	6	22	0.00	30.038 
13:05	58.1	58.1	58.1	73	49.5	1	6	135	0.00	30.038 
13:10	58.3	58.3	58.3	73	49.7	1	4	315	0.00	30.038 
13:15	58.6	58.6	58.6	72	49.6	0	4	112	0.00	30.037 
13:20	58.9	58.9	58.9	72	49.9	1	6	90	0.00	30.037 
13:25	58.9	58.9	58.9	70	49.1	1	4	270	0.00	30.037 
13:30	59.0	59.0	59.0	71	49.6	1	3	270	0.00	30.034 
13:35	59.3	59.3	59.3	70	49.5	1	7	112	0.00	30.034 
13:40	59.6	59.6	59.6	70	49.8	1	5	135	0.00	30.034 
13:45	59.6	59.6	59.6	69	49.4	1	4	292	0.00	30.030 
13:50	59.0	59.0	59.0	70	49.2	2	5	270	0.00	30.030 
13:55	58.9	58.9	58.9	71	49.5	1	4	270	0.00	30.030 
14:00	58.7	58.7	58.7	70	48.9	1	5	292	0.00	30.034 
14:05	58.6	58.6	58.6	70	48.8	1	7	315	0.00	30.034 
14:10	58.9	58.9	58.9	72	49.9	0	3	292	0.00	30.034 
14:15	59.0	59.0	59.0	71	49.6	1	4	292	0.00	30.035 
14:20	58.9	58.9	58.9	70	49.1	1	4	338	0.00	30.035 
14:25	59.0	59.0	59.0	70	49.2	1	7	292	0.00	30.035 
14:30	59.2	59.2	59.2	70	49.4	1	4	248	0.00	30.037 
14:35	59.3	59.3	59.3	70	49.5	1	7	270	0.00	30.037 
14:40	59.6	59.6	59.6	69	49.4	1	4	292	0.00	30.037 
14:45	59.9	59.9	59.9	69	49.7	0	2	112	0.00	30.032 
14:50	60.1	60.1	60.1	65	48.3	1	5	270	0.00	30.032 
14:55	60.4	60.4	60.4	66	49.0	0	2	292	0.00	30.032 
15:00	60.4	60.4	60.4	65	48.6	1	3	315	0.00	30.035 
15:05	60.7	60.7	60.7	65	48.9	0	3	270	0.00	30.035 
15:10	60.5	60.5	60.5	65	48.7	1	3	22	0.00	30.035 
15:15	60.4	60.4	60.4	65	48.6	1	4	315	0.00	30.030 
15:20	60.2	60.2	60.2	66	48.8	1	6	292	0.00	30.030 
15:25	60.2	60.2	60.2	65	48.4	0	3	248	0.00	30.030 
15:30	60.4	60.4	60.4	65	48.6	0	1	248	0.00	30.028 
15:35	60.5	60.5	60.5	64	48.3	0	2	248	0.00	30.028 
15:40	60.9	60.9	60.9	62	47.8	1	6	248	0.00	30.028 
15:45	61.3	61.3	61.3	62	48.2	1	3	68	0.00	30.021 
15:50	61.8	61.8	61.8	61	48.2	1	3	68	0.00	30.021 
15:55	61.8	61.8	61.8	59	47.3	1	4	90	0.00	30.021 
16:00	61.8	61.8	61.8	61	48.2	1	3	292	0.00	30.020 
16:05	61.6	61.6	61.6	60	47.6	1	5	135	0.00	30.020 
16:10	61.5	61.5	61.5	59	47.0	1	7	270	0.00	30.020 
16:15	61.5	61.5	61.5	58	46.6	1	4	270	0.00	30.018 
16:20	61.6	61.6	61.6	59	47.1	1	4	90	0.00	30.018 
16:25	62.0	62.0	62.0	58	47.0	1	3	45	0.00	30.018 
16:30	62.3	62.3	62.3	57	46.9	1	4	270	0.00	30.017 
16:35	62.1	62.1	62.1	57	46.7	1	5	135	0.00	30.017 
16:40	62.1	62.1	62.1	57	46.7	1	4	315	0.00	30.017 
16:45	62.1	62.1	62.1	57	46.7	1	3	0	0.00	30.008 
16:50	62.0	62.0	62.0	56	46.1	1	3	292	0.00	30.008 
16:55	62.4	62.4	62.4	56	46.5	1	5	112	0.00	30.008 
17:00	62.6	62.6	62.6	55	46.2	1	3	112	0.00	30.009 
17:05	62.6	62.6	62.6	55	46.2	1	5	135	0.00	30.009 
17:10	62.6	62.6	62.6	56	46.7	1	3	292	0.00	30.009 
17:15	62.7	62.7	62.7	55	46.3	1	9	180	0.00	30.014 
17:20	62.4	62.4	62.4	56	46.5	1	4	270	0.00	30.014 
17:25	61.8	61.8	61.8	56	45.9	1	4	315	0.00	30.014 
17:30	61.8	61.8	61.8	57	46.4	1	5	112	0.00	30.020 
17:35	61.8	61.8	61.8	57	46.4	1	6	68	0.00	30.020 
17:40	61.6	61.6	61.6	57	46.2	1	4	112	0.00	30.020 
17:45	61.5	61.5	61.5	57	46.1	1	6	270	0.00	30.024 
17:50	61.3	61.3	61.3	58	46.4	1	7	90	0.00	30.024 
17:55	61.2	61.2	61.2	57	45.8	1	7	270	0.00	30.024 
18:00	61.2	61.2	61.2	57	45.8	1	3	270	0.00	30.024 
18:05	61.0	61.0	61.0	58	46.1	1	4	180	0.00	30.024 
18:10	60.7	60.7	60.7	57	45.4	1	6	135	0.00	30.024 
18:15	60.4	60.4	60.4	58	45.6	1	6	338	0.00	30.026 
18:20	60.2	60.2	60.2	58	45.4	1	5	292	0.00	30.026 
18:25	60.4	60.4	60.4	57	45.1	1	5	315	0.00	30.026 
18:30	60.2	60.2	60.2	56	44.4	1	6	112	0.00	30.030 
18:35	60.1	60.1	60.1	57	44.8	1	4	270	0.00	30.030 
18:40	59.8	59.8	59.8	58	45.0	1	5	45	0.00	30.030 
18:45	59.9	59.9	59.9	58	45.1	1	5	158	0.00	30.034 
18:50	60.1	60.1	60.1	59	45.7	1	3	158	0.00	30.034 
18:55	60.1	60.1	60.1	57	44.8	0	2	158	0.00	30.034 
19:00	59.8	59.8	59.8	58	45.0	1	4	68	0.00	30.039 
19:05	59.5	59.5	59.5	58	44.7	1	6	90	0.00	30.039 
19:10	59.0	59.0	59.0	59	44.7	0	2	90	0.00	30.039 
19:15	58.7	58.7	58.7	59	44.4	1	4	270	0.00	30.050 
19:20	58.6	58.6	58.6	59	44.3	1	4	158	0.00	30.050 
19:25	58.6	58.6	58.6	59	44.3	0	2	90	0.00	30.050 
19:30	58.6	58.6	58.6	59	44.3	1	5	135	0.00	30.043 
19:35	58.4	58.4	58.4	59	44.1	1	5	45	0.00	30.043 
19:40	58.3	58.3	58.3	59	44.0	0	2	90	0.00	30.043 
19:45	58.3	58.3	58.3	60	44.5	1	3	90	0.00	30.046 
19:50	58.1	58.1	58.1	61	44.7	0	2	90	0.00	30.046 
19:55	58.1	58.1	58.1	61	44.7	0	2	90	0.00	30.046 
20:00	58.0	58.0	58.0	62	45.1	0	3	112	0.00	30.051 
20:05	57.6	57.6	57.6	62	44.7	0	2	112	0.00	30.051 
20:10	57.5	57.5	57.5	62	44.6	0	2	90	0.00	30.051 
20:15	57.3	57.3	57.3	63	44.8	0	2	90	0.00	30.056 
20:20	57.2	57.2	57.2	64	45.1	0	1	90	0.00	30.056 
20:25	57.2	57.2	57.2	64	45.1	0	3	90	0.00	30.056 
20:30	57.2	57.2	57.2	64	45.1	0	0	---	0.00	30.057 
20:35	57.0	57.0	57.0	65	45.4	0	0	---	0.00	30.057 
20:40	56.9	56.9	56.9	66	45.7	0	0	---	0.00	30.057 
20:45	56.6	56.6	56.6	66	45.4	0	0	---	0.00	30.058 
20:50	56.3	56.3	56.3	67	45.5	0	0	---	0.00	30.058 
20:55	56.2	56.2	56.2	67	45.4	0	4	90	0.00	30.058 
21:00	56.2	56.2	56.2	67	45.4	0	2	90	0.00	30.062 
21:05	56.0	56.0	56.0	67	45.2	0	1	90	0.00	30.062 
21:10	56.0	56.0	56.0	67	45.2	0	3	90	0.00	30.062 
21:15	55.9	55.9	55.9	67	45.1	0	4	112	0.00	30.071 
21:20	55.9	55.9	55.9	67	45.1	0	1	112	0.00	30.071 
21:25	55.7	55.7	55.7	67	44.9	0	2	112	0.00	30.071 
21:30	55.7	55.7	55.7	67	44.9	0	2	112	0.00	30.072 
21:35	55.7	55.7	55.7	67	44.9	0	2	112	0.00	30.072 
21:40	55.7	55.7	55.7	67	44.9	0	2	112	0.00	30.072 
21:45	55.6	55.6	55.6	67	44.8	0	1	112	0.00	30.073 
21:50	55.6	55.6	55.6	67	44.8	0	1	112	0.00	30.073 
21:55	55.4	55.4	55.4	68	45.0	0	2	112	0.00	30.073 
22:00	55.4	55.4	55.4	67	44.6	0	2	112	0.00	30.076 
22:05	55.4	55.4	55.4	67	44.6	0	1	112	0.00	30.076 
22:10	55.4	55.4	55.4	68	45.0	0	1	112	0.00	30.076 
22:15	55.4	55.4	55.4	67	44.6	0	3	112	0.00	30.077 
22:20	55.4	55.4	55.4	68	45.0	0	0	---	0.00	30.077 
22:25	55.3	55.3	55.3	68	44.9	0	2	112	0.00	30.077 
22:30	55.3	55.3	55.3	69	45.3	0	1	112	0.00	30.077 
22:35	55.1	55.1	55.1	69	45.1	0	1	112	0.00	30.077 
22:40	55.0	55.0	55.0	69	45.0	0	0	---	0.00	30.077 
22:45	54.8	54.8	54.8	70	45.2	0	0	---	0.00	30.077 
22:50	54.7	54.7	54.7	70	45.1	0	1	112	0.00	30.077 
22:55	54.5	54.5	54.5	71	45.3	0	1	112	0.00	30.077 
23:00	54.5	54.5	54.5	71	45.3	0	1	112	0.00	30.079 
23:05	54.5	54.5	54.5	71	45.3	0	2	112	0.00	30.079 
23:10	54.5	54.5	54.5	71	45.3	0	1	112	0.00	30.079 
23:15	54.5	54.5	54.5	71	45.3	0	1	112	0.00	30.076 
23:20	54.4	54.4	54.4	71	45.2	0	2	112	0.00	30.076 
23:25	54.4	54.4	54.4	71	45.2	0	2	112	0.00	30.076 
23:30	54.2	54.2	54.2	71	45.0	0	1	112	0.00	30.076 
23:35	54.1	54.1	54.1	71	44.9	0	1	112	0.00	30.076 
23:40	53.8	53.8	53.8	71	44.6	0	0	---	0.00	30.076 
23:45	53.5	53.5	53.5	72	44.7	0	2	112	0.00	30.077 
23:50	53.3	53.3	53.3	73	44.9	0	1	112	0.00	30.077 
23:55	53.2	53.2	53.2	73	44.8	0	1	112	0.00	30.077 

CoCoRaHS
IN-AL-39
A2 Web Hosting
Creative Commons License
GoDaddy
search engine by freefind advanced

loaded 2018-11-16 23:16:26 • last modified 2010-11-18 10:43:29
Privacy PolicyDisclaimer
• wx.awcolley.com is powered by PmWiki v.2002016 •
• all content (unless otherwise noted) © 2018 A W Colley